Time;durP1;ratioP1;P1;durP2;ratioP2;P2;SDS_P1;SDS_P2;PMS_P1;PMS_P2;Temp;Humidity;BMP_temperature;BMP_pressure;BME280_temperature;BME280_humidity;BME280_pressure;Samples;Min_cycle;Max_cycle;Signal;HPM_P1;HPM_P2
2023/04/26 00:16:03;;;;;;;16.37;8.50;;;14.80;99.90;;;;;;4588792;19;20003;-21
2023/04/26 00:17:35;;;;;;;21.87;9.00;;;14.80;99.90;;;;;;4590601;19;20469;-19
2023/04/26 00:19:09;;;;;;;18.45;9.55;;;14.80;99.90;;;;;;4592141;19;20426;-21
2023/04/26 00:20:40;;;;;;;18.30;8.07;;;14.80;99.90;;;;;;4593064;19;20448;-21
2023/04/26 00:22:11;;;;;;;17.75;8.82;;;14.70;99.90;;;;;;4592301;19;20040;-20
2023/04/26 00:23:43;;;;;;;16.20;8.37;;;14.70;99.70;;;;;;4591574;19;20507;-21
2023/04/26 00:25:16;;;;;;;17.70;8.07;;;14.70;99.90;;;;;;4592321;19;20481;-21
2023/04/26 00:26:47;;;;;;;;;;;14.70;99.90;;;;;;4592939;19;20485;-20
2023/04/26 00:28:18;;;;;;;19.50;9.57;;;14.60;99.90;;;;;;4593894;19;19911;-20
2023/04/26 00:29:50;;;;;;;13.50;6.28;;;14.60;99.80;;;;;;4592350;19;20010;-21
2023/04/26 00:31:22;;;;;;;13.17;6.47;;;14.60;99.70;;;;;;4593054;19;20042;-20
2023/04/26 00:32:55;;;;;;;12.67;6.23;;;14.60;99.60;;;;;;4592265;19;20019;-21
2023/04/26 00:34:35;;;;;;;11.83;5.77;;;14.60;99.50;;;;;;4589395;19;20018;-22
2023/04/26 00:36:07;;;;;;;15.43;6.73;;;14.60;99.40;;;;;;4592131;19;20014;-20
2023/04/26 00:37:40;;;;;;;12.15;6.32;;;14.70;99.30;;;;;;4591646;19;20011;-20
2023/04/26 00:39:12;;;;;;;13.67;6.37;;;14.70;99.40;;;;;;4594613;19;20007;-20
2023/04/26 00:40:43;;;;;;;16.17;5.57;;;14.70;99.40;;;;;;4591937;19;20018;-20
2023/04/26 00:42:14;;;;;;;14.07;5.78;;;14.70;99.50;;;;;;4592135;19;20360;-20
2023/04/26 00:43:47;;;;;;;13.03;5.93;;;14.70;99.40;;;;;;4590801;19;20093;-20
2023/04/26 00:45:18;;;;;;;11.02;5.40;;;14.70;99.30;;;;;;4591496;19;20018;-21
2023/04/26 00:46:50;;;;;;;11.45;5.13;;;14.70;99.20;;;;;;4591971;19;20511;-20
2023/04/26 00:48:23;;;;;;;10.63;4.73;;;14.60;99.30;;;;;;4591206;19;20472;-21
2023/04/26 00:49:56;;;;;;;14.37;5.73;;;14.60;99.10;;;;;;4592218;19;20026;-20
2023/04/26 00:51:28;;;;;;;10.77;5.27;;;14.60;99.20;;;;;;4592866;19;20011;-20
2023/04/26 00:53:01;;;;;;;10.33;4.23;;;14.60;99.30;;;;;;4591699;19;20011;-22
2023/04/26 00:54:32;;;;;;;10.27;4.38;;;14.60;99.10;;;;;;4592186;19;20024;-21
2023/04/26 00:56:08;;;;;;;8.77;4.73;;;14.60;99.10;;;;;;4591554;19;20038;-20
2023/04/26 00:57:40;;;;;;;13.70;5.63;;;14.60;99.20;;;;;;4590568;19;20465;-20
2023/04/26 00:59:12;;;;;;;9.77;5.10;;;14.60;99.10;;;;;;4591835;19;20019;-20
2023/04/26 03:57:28;;;;;;;8.47;4.37;;;14.60;98.30;;;;;;4591049;19;20010;-21
2023/04/26 03:59:00;;;;;;;8.60;3.63;;;14.70;98.10;;;;;;4591322;19;20007;-21
2023/04/26 04:00:31;;;;;;;8.38;3.50;;;14.70;98.10;;;;;;4593525;19;20018;-20
2023/04/26 04:02:05;;;;;;;8.93;3.93;;;14.70;98.10;;;;;;4593295;19;20464;-20
2023/04/26 04:03:37;;;;;;;9.40;4.03;;;14.70;98.10;;;;;;4593026;19;20030;-21
2023/04/26 04:05:09;;;;;;;7.65;4.03;;;14.70;98.00;;;;;;4592810;19;20014;-20
2023/04/26 04:06:41;;;;;;;9.07;4.17;;;14.70;98.20;;;;;;4593182;19;20014;-20
2023/04/26 04:08:12;;;;;;;11.98;5.20;;;14.70;98.40;;;;;;4592325;19;20002;-20
2023/04/26 04:09:43;;;;;;;12.32;5.05;;;14.70;98.30;;;;;;4592261;19;20002;-20
2023/04/26 04:11:14;;;;;;;10.98;5.97;;;14.70;98.40;;;;;;4592476;19;20475;-21
2023/04/26 04:12:46;;;;;;;12.05;5.60;;;14.70;98.50;;;;;;4593357;19;20337;-21
2023/04/26 04:14:17;;;;;;;9.63;4.80;;;14.70;98.50;;;;;;4592946;19;20016;-21
2023/04/26 04:15:48;;;;;;;9.93;4.50;;;14.70;98.30;;;;;;4592432;19;20034;-20
2023/04/26 04:17:19;;;;;;;8.23;4.70;;;14.70;98.40;;;;;;4591960;19;20015;-20
2023/04/26 04:18:55;;;;;;;9.73;4.40;;;14.70;98.40;;;;;;4591723;19;19998;-21
2023/04/26 04:20:31;;;;;;;8.23;3.93;;;14.70;98.60;;;;;;4592391;19;20077;-21
2023/04/26 04:22:02;;;;;;;10.20;3.78;;;14.70;98.80;;;;;;4591185;19;20484;-20
2023/04/26 04:23:33;;;;;;;8.25;3.83;;;14.70;98.70;;;;;;4592087;19;20077;-21
2023/04/26 04:25:12;;;;;;;9.30;3.57;;;14.70;98.70;;;;;;4591829;19;20010;-21
2023/04/26 04:26:43;;;;;;;6.87;3.47;;;14.70;98.80;;;;;;4592083;19;20018;-21
2023/04/26 04:28:15;;;;;;;7.28;3.45;;;14.70;98.90;;;;;;4591902;19;20036;-20
2023/04/26 04:29:48;;;;;;;8.20;3.60;;;14.70;99.00;;;;;;4592407;19;20017;-20
2023/04/26 04:31:19;;;;;;;8.88;3.13;;;14.70;98.90;;;;;;4592518;19;20321;-20
2023/04/26 04:35:13;;;;;;;10.57;6.07;;;14.70;98.80;;;;;;4592172;19;20345;-21
2023/04/26 04:37:04;;;;;;;8.97;4.60;;;14.60;99.00;;;;;;4592192;19;20007;-20
2023/04/26 04:38:54;;;;;;;6.83;3.37;;;14.60;98.80;;;;;;4591033;19;20368;-21
2023/04/26 04:40:26;;;;;;;9.20;3.67;;;14.60;98.80;;;;;;4590797;19;20041;-21
2023/04/26 04:42:00;;;;;;;7.70;3.70;;;14.50;98.80;;;;;;4590690;19;20037;-21
2023/04/26 04:43:31;;;;;;;7.18;4.47;;;14.50;98.70;;;;;;4591879;19;20460;-22
2023/04/26 04:45:04;;;;;;;10.87;7.80;;;12.20;99.90;;;;;;4594470;19;20062;-21
2023/04/26 04:46:37;;;;;;;7.20;4.10;;;11.00;99.90;;;;;;4592082;19;20476;-21
2023/04/26 04:48:10;;;;;;;5.38;3.55;;;10.40;99.90;;;;;;4591823;19;20448;-21
2023/04/26 04:49:42;;;;;;;7.20;3.77;;;10.10;99.90;;;;;;4592760;19;20011;-22
2023/04/26 04:51:13;;;;;;;6.78;4.07;;;9.90;99.90;;;;;;4590668;19;20437;-21
2023/04/26 04:52:45;;;;;;;8.57;4.23;;;9.90;99.90;;;;;;4592762;19;20007;-20
2023/04/26 04:54:17;;;;;;;5.00;3.20;;;9.80;99.90;;;;;;4590923;19;20504;-20
2023/04/26 04:55:48;;;;;;;7.38;3.97;;;9.80;99.90;;;;;;4591401;19;20074;-21
2023/04/26 04:57:19;;;;;;;5.50;3.28;;;9.70;99.90;;;;;;4590895;19;20019;-21
2023/04/26 04:58:51;;;;;;;6.07;3.72;;;9.70;99.90;;;;;;4590876;19;20433;-21
2023/04/26 05:00:22;;;;;;;6.80;3.75;;;9.70;99.90;;;;;;4591821;19;20429;-21
2023/04/26 05:01:55;;;;;;;7.33;3.40;;;9.70;99.90;;;;;;4588790;19;20005;-21
2023/04/26 05:03:26;;;;;;;6.53;3.45;;;9.70;99.90;;;;;;4590895;19;20421;-20
2023/04/26 05:05:03;;;;;;;6.30;3.80;;;9.70;99.90;;;;;;4592618;19;20027;-21
2023/04/26 05:06:35;;;;;;;6.03;3.37;;;9.70;99.90;;;;;;4590255;19;20539;-20
2023/04/26 05:08:07;;;;;;;6.50;3.70;;;9.60;99.90;;;;;;4591042;19;20973;-20
2023/04/26 05:09:42;;;;;;;5.73;2.77;;;9.60;99.90;;;;;;4591149;19;20486;-20
2023/04/26 05:11:13;;;;;;;7.70;3.20;;;9.60;99.90;;;;;;4591498;19;20487;-20
2023/04/26 05:12:45;;;;;;;6.68;3.13;;;9.60;99.90;;;;;;4590740;19;21000;-20
2023/04/26 05:14:17;;;;;;;5.10;3.10;;;9.60;99.90;;;;;;4590174;19;19999;-20
2023/04/26 05:15:49;;;;;;;7.83;3.20;;;9.60;99.90;;;;;;4590825;19;20429;-20
2023/04/26 05:17:21;;;;;;;7.20;2.95;;;9.60;99.90;;;;;;4591286;19;20465;-20
2023/04/26 05:18:52;;;;;;;8.05;3.33;;;9.60;99.90;;;;;;4591103;19;20011;-20
2023/04/26 05:20:23;;;;;;;4.78;2.72;;;9.60;99.90;;;;;;4590861;19;20358;-20
2023/04/26 05:21:56;;;;;;;5.60;3.00;;;9.60;99.90;;;;;;4590988;19;20021;-20
2023/04/26 05:23:28;;;;;;;5.63;2.77;;;9.60;99.90;;;;;;4591584;19;20428;-20
2023/04/26 05:25:00;;;;;;;5.55;2.72;;;9.50;99.90;;;;;;4590453;19;20428;-20
2023/04/26 05:26:31;;;;;;;7.30;3.30;;;9.60;99.90;;;;;;4589819;19;20014;-20
2023/04/26 05:28:02;;;;;;;6.55;3.15;;;9.60;99.90;;;;;;4589853;19;20029;-20
2023/04/26 05:29:33;;;;;;;6.15;2.55;;;9.60;99.90;;;;;;4591291;19;20006;-21
2023/04/26 05:31:05;;;;;;;6.63;3.00;;;9.60;99.90;;;;;;4591656;19;20468;-20
2023/04/26 05:32:38;;;;;;;7.33;3.10;;;9.60;99.90;;;;;;4589808;19;20038;-21
2023/04/26 05:34:09;;;;;;;7.68;3.20;;;9.60;99.90;;;;;;4590737;19;20417;-21
2023/04/26 05:35:41;;;;;;;5.97;2.70;;;9.60;99.90;;;;;;4591472;19;20015;-20
2023/04/26 05:37:14;;;;;;;5.70;3.10;;;9.60;99.90;;;;;;4589527;19;20441;-21
2023/04/26 05:38:44;;;;;;;5.75;2.67;;;9.60;99.90;;;;;;4589843;19;20437;-20
2023/04/26 05:40:17;;;;;;;7.60;3.20;;;9.70;99.90;;;;;;4589540;19;20024;-21
2023/04/26 05:41:48;;;;;;;5.85;2.60;;;9.60;99.90;;;;;;4590484;19;21108;-20
2023/04/26 05:43:19;;;;;;;10.48;5.40;;;9.60;99.90;;;;;;4589365;19;20085;-21
2023/04/26 05:44:55;;;;;;;8.63;4.72;;;9.60;99.90;;;;;;4589761;19;20038;-20
2023/04/26 05:46:26;;;;;;;6.67;3.10;;;9.60;99.90;;;;;;4589350;19;20074;-20
2023/04/26 05:47:59;;;;;;;6.23;2.40;;;9.70;99.90;;;;;;4590373;19;20472;-21
2023/04/26 05:49:30;;;;;;;5.97;3.13;;;9.70;99.90;;;;;;4589397;19;20425;-20
2023/04/26 05:51:01;;;;;;;8.77;2.35;;;9.70;99.90;;;;;;4590449;19;20545;-21
2023/04/26 05:52:34;;;;;;;7.57;2.43;;;9.70;99.90;;;;;;4590755;19;20014;-20
2023/04/26 05:54:05;;;;;;;6.80;2.60;;;10.20;99.90;;;;;;4589941;19;20756;-20
2023/04/26 05:55:37;;;;;;;10.07;2.73;;;10.60;99.90;;;;;;4588722;19;20028;-20
2023/04/26 05:57:11;;;;;;;8.47;2.40;;;11.00;99.90;;;;;;4588919;19;20473;-21
2023/04/26 05:58:43;;;;;;;7.28;2.75;;;11.30;99.90;;;;;;4589755;19;20515;-21
2023/04/26 06:00:18;;;;;;;8.67;2.40;;;11.60;99.90;;;;;;4590434;19;20011;-20
2023/04/26 06:01:50;;;;;;;11.30;2.80;;;11.90;99.90;;;;;;4589475;19;20492;-21
2023/04/26 06:03:23;;;;;;;10.10;3.30;;;12.10;99.90;;;;;;4590063;19;20445;-21
2023/04/26 06:04:55;;;;;;;6.30;2.50;;;12.20;99.90;;;;;;4591085;19;20469;-20
2023/04/26 06:06:28;;;;;;;10.90;2.87;;;12.40;99.90;;;;;;4590479;19;20787;-20
2023/04/26 06:08:00;;;;;;;9.87;3.87;;;12.60;99.90;;;;;;4590362;19;20467;-21
2023/04/26 06:09:31;;;;;;;7.55;2.13;;;12.70;99.90;;;;;;4590662;19;20429;-21
2023/04/26 06:11:03;;;;;;;6.93;2.33;;;12.70;99.90;;;;;;4591179;19;20010;-20
2023/04/26 06:12:34;;;;;;;5.13;2.13;;;12.80;99.90;;;;;;4589549;19;20019;-21
2023/04/26 06:14:05;;;;;;;6.30;2.60;;;12.90;99.90;;;;;;4590387;19;20010;-20
2023/04/26 06:15:37;;;;;;;8.32;3.05;;;13.00;99.90;;;;;;4590772;19;20382;-21
2023/04/26 06:17:08;;;;;;;8.32;2.30;;;13.10;99.90;;;;;;4590375;19;20013;-21
2023/04/26 06:18:41;;;;;;;11.83;3.63;;;13.20;99.90;;;;;;4589998;19;20007;-21
2023/04/26 07:09:32;;;;;;;8.10;2.60;;;14.00;98.10;;;;;;4585391;19;20445;-20
2023/04/26 07:11:08;;;;;;;;;;;14.10;98.30;;;;;;4588938;19;20424;-20
2023/04/26 07:12:39;;;;;;;7.67;2.80;;;14.10;98.20;;;;;;4587931;19;20293;-20
2023/04/26 07:14:10;;;;;;;7.63;2.38;;;14.10;97.90;;;;;;4588992;19;20011;-21
2023/04/26 07:16:00;;;;;;;8.57;2.33;;;14.10;98.00;;;;;;4588692;19;20066;-21
2023/04/26 07:17:33;;;;;;;4.80;1.97;;;14.10;97.90;;;;;;4588611;19;20433;-20
2023/04/26 07:19:23;;;;;;;7.28;2.25;;;14.10;97.70;;;;;;4588977;19;20017;-21
2023/04/26 07:20:54;;;;;;;4.93;1.60;;;14.20;97.90;;;;;;4588907;19;20041;-20
2023/04/26 07:22:26;;;;;;;7.73;2.67;;;14.30;97.10;;;;;;4589133;19;20014;-21
2023/04/26 07:23:57;;;;;;;5.13;2.20;;;14.30;96.90;;;;;;4589361;19;20512;-20
2023/04/26 07:25:29;;;;;;;8.57;2.63;;;14.30;96.80;;;;;;4591466;19;20037;-20
2023/04/26 07:27:01;;;;;;;5.53;1.73;;;14.30;96.50;;;;;;4593263;19;20347;-20
2023/04/26 07:28:32;;;;;;;6.57;2.03;;;14.30;96.30;;;;;;4593474;19;20019;-21
2023/04/26 07:30:04;;;;;;;7.60;2.40;;;14.30;95.80;;;;;;4593637;19;20037;-21
2023/04/26 07:31:35;;;;;;;6.97;1.88;;;14.30;95.90;;;;;;4592307;19;20025;-21
2023/04/26 07:33:06;;;;;;;8.55;2.80;;;14.30;95.60;;;;;;4593279;19;20031;-21
2023/04/26 07:34:38;;;;;;;7.90;2.50;;;14.30;95.30;;;;;;4592436;19;20006;-21
2023/04/26 07:36:10;;;;;;;6.47;1.77;;;14.30;95.50;;;;;;4591188;19;20019;-21
2023/04/26 07:37:42;;;;;;;5.40;2.28;;;14.30;95.10;;;;;;4591398;19;20018;-20
2023/04/26 07:39:14;;;;;;;4.57;1.63;;;14.30;94.30;;;;;;4593438;19;20011;-21
2023/04/26 07:40:45;;;;;;;6.03;1.80;;;14.40;94.40;;;;;;4590578;19;20007;-20
2023/04/26 07:42:16;;;;;;;5.47;1.90;;;14.40;94.80;;;;;;4593495;19;20034;-21
2023/04/26 07:43:47;;;;;;;8.88;2.92;;;14.50;94.60;;;;;;4593673;19;20482;-21
2023/04/26 07:45:19;;;;;;;6.30;1.63;;;14.50;95.00;;;;;;4593373;19;20010;-21
2023/04/26 07:46:50;;;;;;;4.68;1.42;;;14.50;94.90;;;;;;4592864;19;20013;-20
2023/04/26 07:48:21;;;;;;;;;;;14.60;94.20;;;;;;4591774;19;20014;-21
2023/04/26 07:49:53;;;;;;;7.37;2.30;;;14.70;95.00;;;;;;4591400;19;19925;-21
2023/04/26 07:51:26;;;;;;;;;;;14.70;94.50;;;;;;4590901;19;20044;-20
2023/04/26 07:52:57;;;;;;;5.70;1.77;;;14.60;94.40;;;;;;4591267;19;19922;-21
2023/04/26 07:54:28;;;;;;;6.75;2.38;;;14.60;93.80;;;;;;4591227;19;20344;-21
2023/04/26 07:55:59;;;;;;;7.38;2.40;;;14.50;93.20;;;;;;4593771;19;20021;-21
2023/04/26 07:57:31;;;;;;;7.85;2.30;;;14.60;92.80;;;;;;4592413;19;20015;-21
2023/04/26 07:59:03;;;;;;;5.47;2.20;;;14.60;93.00;;;;;;4593555;19;20463;-21
2023/04/26 08:00:37;;;;;;;4.97;2.03;;;14.60;92.80;;;;;;4592405;19;20015;-21
2023/04/26 08:02:09;;;;;;;6.17;1.90;;;14.70;93.10;;;;;;4589048;19;20007;-21
2023/04/26 08:03:40;;;;;;;7.18;2.13;;;14.70;92.70;;;;;;4592018;19;20096;-21
2023/04/26 08:05:12;;;;;;;;;;;14.70;93.00;;;;;;4592301;19;20018;-22
2023/04/26 08:06:47;;;;;;;3.10;1.50;;;14.70;92.90;;;;;;4590767;19;19932;-20
2023/04/26 08:08:18;;;;;;;5.10;2.03;;;14.70;92.30;;;;;;4592750;19;20485;-21
2023/04/26 08:09:50;;;;;;;;;;;14.50;91.30;;;;;;4590183;19;20019;-21
2023/04/26 08:11:21;;;;;;;4.40;1.30;;;14.60;91.30;;;;;;4592981;19;19945;-21
2023/04/26 08:12:52;;;;;;;5.22;1.33;;;14.60;90.90;;;;;;4591008;19;20472;-21
2023/04/26 08:14:23;;;;;;;4.45;1.52;;;14.50;90.30;;;;;;4592278;19;20082;-21
2023/04/26 08:15:55;;;;;;;7.30;1.58;;;14.30;89.40;;;;;;4591347;19;20011;-21
2023/04/26 08:17:27;;;;;;;4.15;1.70;;;14.30;90.00;;;;;;4590444;19;20027;-21
2023/04/26 08:19:01;;;;;;;5.77;1.73;;;14.40;90.30;;;;;;4590962;19;20575;-21
2023/04/26 08:20:33;;;;;;;3.77;1.63;;;14.60;90.90;;;;;;4590927;19;20014;-21
2023/04/26 08:22:04;;;;;;;7.32;2.00;;;14.70;91.00;;;;;;4590121;19;20014;-20
2023/04/26 08:23:36;;;;;;;6.47;1.80;;;14.80;91.30;;;;;;4591382;19;20026;-21
2023/04/26 08:25:09;;;;;;;6.73;1.93;;;14.80;91.20;;;;;;4592000;19;20014;-21
2023/04/26 08:26:40;;;;;;;5.73;1.80;;;15.00;91.00;;;;;;4590885;19;19998;-22
2023/04/26 08:28:13;;;;;;;4.90;1.85;;;15.00;90.60;;;;;;4592243;19;20058;-21
2023/04/26 08:29:45;;;;;;;6.93;1.90;;;15.20;90.70;;;;;;4591799;19;20019;-21
2023/04/26 08:31:16;;;;;;;5.55;2.22;;;15.20;90.50;;;;;;4592312;19;20017;-21
2023/04/26 08:32:47;;;;;;;4.07;1.40;;;15.20;90.00;;;;;;4592444;19;20015;-21
2023/04/26 08:34:18;;;;;;;4.25;1.10;;;15.30;88.90;;;;;;4591438;19;20006;-21
2023/04/26 08:35:49;;;;;;;2.60;1.23;;;15.30;87.90;;;;;;4592099;19;20066;-20
2023/04/26 08:37:21;;;;;;;4.07;1.83;;;13.50;84.90;;;;;;4591167;19;20062;-20
2023/04/26 08:38:52;;;;;;;3.53;1.45;;;12.30;89.50;;;;;;4592435;19;20344;-21
2023/04/26 08:40:23;;;;;;;2.90;1.50;;;11.80;91.30;;;;;;4590651;19;20010;-21
2023/04/26 08:41:56;;;;;;;5.15;1.83;;;11.60;92.50;;;;;;4590057;19;20047;-22
2023/04/26 08:43:28;;;;;;;2.50;1.23;;;11.50;92.30;;;;;;4590444;19;20495;-21
2023/04/26 08:45:01;;;;;;;4.80;2.03;;;11.50;91.20;;;;;;4590886;19;20767;-20
2023/04/26 08:46:54;;;;;;;5.10;1.77;;;11.40;92.40;;;;;;4590981;19;20452;-20
2023/04/26 08:48:25;;;;;;;3.97;1.63;;;11.40;92.30;;;;;;4589177;19;20440;-20
2023/04/26 08:50:02;;;;;;;4.67;1.50;;;11.30;92.40;;;;;;4588653;19;20457;-20
2023/04/26 08:51:33;;;;;;;4.27;2.07;;;11.30;92.50;;;;;;4590324;19;20767;-20
2023/04/26 08:53:05;;;;;;;3.60;1.50;;;11.20;93.90;;;;;;4589746;19;20465;-21
2023/04/26 08:54:38;;;;;;;4.77;1.77;;;11.20;93.60;;;;;;4589158;19;20017;-20
2023/04/26 08:56:10;;;;;;;4.10;1.90;;;11.10;92.80;;;;;;4589360;19;20448;-21
2023/04/26 08:57:46;;;;;;;3.40;1.60;;;11.10;93.00;;;;;;4589187;19;20013;-21
2023/04/26 08:59:17;;;;;;;3.80;1.33;;;11.20;92.80;;;;;;4589003;19;20432;-20
2023/04/26 09:00:50;;;;;;;3.47;1.38;;;11.20;93.10;;;;;;4588948;19;20778;-20
2023/04/26 09:02:22;;;;;;;4.00;1.70;;;11.20;93.40;;;;;;4587909;19;20615;-20
2023/04/26 09:03:55;;;;;;;3.85;1.50;;;11.20;93.50;;;;;;4589312;19;20455;-21
2023/04/26 09:05:26;;;;;;;3.33;1.57;;;11.30;93.60;;;;;;4588856;19;20078;-20
2023/04/26 09:07:01;;;;;;;;;;;11.30;93.00;;;;;;4589798;19;20433;-20
2023/04/26 09:08:33;;;;;;;4.37;1.80;;;11.30;92.60;;;;;;4591575;19;19915;-21
2023/04/26 09:10:05;;;;;;;4.93;1.88;;;11.20;93.60;;;;;;4588319;19;20875;-20
2023/04/26 09:11:56;;;;;;;3.10;1.57;;;11.20;94.30;;;;;;4588837;19;20025;-21
2023/04/26 09:13:29;;;;;;;4.13;2.10;;;11.20;93.90;;;;;;4589057;19;20514;-21
2023/04/26 09:15:01;;;;;;;3.67;1.45;;;11.20;92.60;;;;;;4588131;19;20014;-20
2023/04/26 09:16:38;;;;;;;3.80;1.88;;;11.20;93.40;;;;;;4589294;19;20483;-21
2023/04/26 09:18:19;;;;;;;3.50;1.57;;;11.20;93.90;;;;;;4586569;19;20030;-20
2023/04/26 09:19:50;;;;;;;3.67;1.55;;;11.20;94.30;;;;;;4587211;19;20440;-20
2023/04/26 09:21:22;;;;;;;3.40;1.58;;;11.20;95.30;;;;;;4587160;19;20562;-20
2023/04/26 09:23:03;;;;;;;4.30;2.08;;;11.20;94.20;;;;;;4587443;19;20015;-20
2023/04/26 09:24:47;;;;;;;4.65;2.10;;;11.10;93.90;;;;;;4590176;19;20436;-20
2023/04/26 09:26:19;;;;;;;5.27;2.10;;;11.10;95.10;;;;;;4590254;19;20503;-22
2023/04/26 09:27:51;;;;;;;5.45;2.15;;;11.10;95.50;;;;;;4590824;19;20529;-21
2023/04/26 09:29:22;;;;;;;;;;;11.20;94.90;;;;;;4590676;19;20030;-20
2023/04/26 09:30:53;;;;;;;2.63;1.40;;;11.10;94.00;;;;;;4590639;19;20027;-20
2023/04/26 09:32:25;;;;;;;2.72;1.42;;;11.20;94.20;;;;;;4588580;19;20465;-21
2023/04/26 09:33:58;;;;;;;7.93;3.40;;;11.10;93.80;;;;;;4588829;19;20038;-20
2023/04/26 09:35:33;;;;;;;5.63;2.20;;;11.10;93.90;;;;;;4589518;19;21034;-20
2023/04/26 09:37:04;;;;;;;4.80;2.27;;;11.10;94.10;;;;;;4589394;19;20449;-21
2023/04/26 09:38:41;;;;;;;5.03;2.10;;;11.20;94.10;;;;;;4588992;19;20445;-21
2023/04/26 09:40:21;;;;;;;5.07;1.93;;;11.20;95.20;;;;;;4586828;19;20484;-20
2023/04/26 09:41:53;;;;;;;4.90;1.80;;;11.50;95.40;;;;;;4587184;19;20439;-20
2023/04/26 09:43:24;;;;;;;4.55;1.95;;;11.90;95.30;;;;;;4590439;19;21071;-22
2023/04/26 09:45:05;;;;;;;4.13;1.90;;;12.20;95.10;;;;;;4590345;19;20019;-20
2023/04/26 09:46:36;;;;;;;5.50;2.73;;;12.50;95.00;;;;;;4589972;19;20017;-21
2023/04/26 09:48:33;;;;;;;8.07;2.83;;;12.80;94.90;;;;;;4588337;19;20584;-21
2023/04/26 09:50:05;;;;;;;5.53;1.70;;;12.90;94.50;;;;;;4591227;19;20491;-22
2023/04/26 09:51:35;;;;;;;7.97;3.20;;;13.10;94.50;;;;;;4591065;19;20453;-21
2023/04/26 09:53:08;;;;;;;7.23;2.90;;;13.20;93.90;;;;;;4589411;19;20042;-20
2023/04/26 09:54:39;;;;;;;4.10;1.90;;;13.30;92.90;;;;;;4589150;19;20534;-21
2023/04/26 09:56:18;;;;;;;8.90;3.88;;;13.40;93.60;;;;;;4589633;19;20010;-21
2023/04/26 09:57:49;;;;;;;5.47;2.20;;;13.60;93.90;;;;;;4588479;19;20010;-21
2023/04/26 09:59:20;;;;;;;11.63;2.53;;;13.60;93.80;;;;;;4588066;19;20453;-22
2023/04/26 10:00:51;;;;;;;6.68;1.88;;;13.60;93.60;;;;;;4588721;19;20096;-20
2023/04/26 10:02:24;;;;;;;5.43;1.45;;;13.70;93.30;;;;;;4586562;19;20019;-21
2023/04/26 10:04:00;;;;;;;4.27;1.73;;;13.80;93.30;;;;;;4588126;19;20002;-21
2023/04/26 10:05:31;;;;;;;9.13;3.53;;;13.80;93.60;;;;;;4588219;19;20437;-21
2023/04/26 10:07:04;;;;;;;6.53;2.03;;;13.80;93.30;;;;;;4589078;19;20014;-20
2023/04/26 10:08:36;;;;;;;4.90;2.10;;;13.90;92.70;;;;;;4591095;19;20078;-21
2023/04/26 10:10:10;;;;;;;4.27;1.30;;;13.90;92.30;;;;;;4589472;19;20022;-20
2023/04/26 10:11:43;;;;;;;7.67;1.97;;;13.90;92.30;;;;;;4590288;19;20021;-21
2023/04/26 10:13:15;;;;;;;5.50;1.77;;;14.00;91.80;;;;;;4590743;19;20417;-21
2023/04/26 10:14:48;;;;;;;6.17;1.70;;;13.90;91.40;;;;;;4590367;19;20445;-21
2023/04/26 10:16:20;;;;;;;5.27;2.00;;;14.00;91.40;;;;;;4588196;19;20010;-21
2023/04/26 10:17:51;;;;;;;7.25;2.17;;;14.00;91.90;;;;;;4587857;19;20461;-20
2023/04/26 10:19:25;;;;;;;6.33;2.03;;;14.00;92.50;;;;;;4589616;19;20074;-21
2023/04/26 10:21:02;;;;;;;6.27;2.23;;;14.10;92.80;;;;;;4590272;19;20023;-20
2023/04/26 10:22:36;;;;;;;5.97;2.07;;;14.10;92.70;;;;;;4588821;19;20431;-21
2023/04/26 10:24:07;;;;;;;10.17;3.23;;;14.00;92.80;;;;;;4588645;19;20006;-20
2023/04/26 10:25:40;;;;;;;6.65;2.25;;;14.10;92.40;;;;;;4588606;19;20461;-21
2023/04/26 10:27:13;;;;;;;7.87;2.50;;;14.10;93.10;;;;;;4589460;19;20014;-21
2023/04/26 10:28:47;;;;;;;8.40;2.13;;;14.10;92.70;;;;;;4588596;19;20014;-20
2023/04/26 10:30:20;;;;;;;7.23;2.83;;;14.00;92.60;;;;;;4589522;19;20038;-21
2023/04/26 10:32:01;;;;;;;5.27;2.07;;;14.00;92.60;;;;;;4589986;19;20023;-20
2023/04/26 10:33:32;;;;;;;6.23;2.33;;;14.10;92.70;;;;;;4590003;19;20523;-21
2023/04/26 10:35:11;;;;;;;6.43;2.05;;;14.00;92.60;;;;;;4589713;19;20818;-21
2023/04/26 10:37:10;;;;;;;8.17;2.57;;;14.00;92.50;;;;;;4589921;19;20017;-20
2023/04/26 10:39:17;;;;;;;8.30;2.70;;;14.10;92.70;;;;;;4589565;19;20441;-21
2023/04/26 10:43:14;;;;;;;6.27;2.50;;;14.10;92.50;;;;;;4588746;19;20009;-21
2023/04/26 10:44:46;;;;;;;7.23;2.00;;;14.10;92.60;;;;;;4589734;19;20488;-20
2023/04/26 10:46:39;;;;;;;9.60;2.45;;;14.10;92.40;;;;;;4589290;19;20451;-20
2023/04/26 10:48:16;;;;;;;6.57;2.43;;;14.10;92.30;;;;;;4589127;19;20090;-21
2023/04/26 10:49:49;;;;;;;8.50;3.03;;;14.00;92.10;;;;;;4589634;19;20997;-20
2023/04/26 10:51:20;;;;;;;8.70;2.88;;;14.00;92.20;;;;;;4588051;19;20018;-20
2023/04/26 10:53:00;;;;;;;10.40;4.90;;;14.00;92.30;;;;;;4588818;19;20042;-21
2023/04/26 10:54:53;;;;;;;7.33;2.80;;;14.10;92.40;;;;;;4589504;19;20011;-21
2023/04/26 10:56:27;;;;;;;14.47;9.50;;;14.00;92.40;;;;;;4587368;19;21199;-20
2023/04/26 10:58:00;;;;;;;13.03;9.10;;;14.10;91.70;;;;;;4585955;19;20456;-20
2023/04/26 10:59:33;;;;;;;11.27;7.00;;;14.10;92.00;;;;;;4588028;19;20018;-20
2023/04/26 11:01:16;;;;;;;11.07;6.72;;;14.20;92.30;;;;;;4591623;19;20027;-21
2023/04/26 11:03:04;;;;;;;8.13;3.90;;;14.20;92.00;;;;;;4592070;19;20007;-21
2023/04/26 11:05:04;;;;;;;6.07;2.90;;;14.10;92.30;;;;;;4591666;19;20014;-21
2023/04/26 11:06:52;;;;;;;7.17;2.10;;;14.20;92.10;;;;;;4591594;19;20392;-20
2023/04/26 11:08:29;;;;;;;5.50;1.60;;;14.30;92.20;;;;;;4591202;19;20123;-20
2023/04/26 11:10:00;;;;;;;5.83;1.63;;;14.40;92.50;;;;;;4589791;19;20428;-21
2023/04/26 11:11:31;;;;;;;4.55;1.52;;;14.50;92.60;;;;;;4591273;19;20010;-21
2023/04/26 11:13:03;;;;;;;4.90;2.00;;;14.40;92.20;;;;;;4592258;19;20010;-21
2023/04/26 11:14:35;;;;;;;3.90;1.50;;;14.40;91.80;;;;;;4593410;19;20014;-21
2023/04/26 11:16:08;;;;;;;8.65;2.00;;;14.50;91.70;;;;;;4591142;19;20030;-21
2023/04/26 11:17:39;;;;;;;6.50;1.90;;;14.50;91.70;;;;;;4592096;19;20014;-21
2023/04/26 11:19:10;;;;;;;7.30;2.38;;;14.50;91.50;;;;;;4593833;19;20017;-20
2023/04/26 11:20:41;;;;;;;10.75;2.63;;;14.50;91.40;;;;;;4594067;19;20038;-22
2023/04/26 11:22:12;;;;;;;6.10;2.65;;;14.40;91.30;;;;;;4591962;19;20041;-21
2023/04/26 11:23:52;;;;;;;5.38;1.67;;;14.40;91.60;;;;;;4592942;19;20017;-21
2023/04/26 11:25:25;;;;;;;6.07;1.80;;;14.40;91.70;;;;;;4591445;19;20455;-21
2023/04/26 11:26:57;;;;;;;6.53;1.83;;;14.40;91.80;;;;;;4591279;19;20027;-21
2023/04/26 11:28:31;;;;;;;6.15;1.73;;;14.40;91.90;;;;;;4590845;19;20015;-21
2023/04/26 11:30:04;;;;;;;7.13;2.10;;;14.40;91.80;;;;;;4590446;19;20082;-21
2023/04/26 11:31:36;;;;;;;5.70;2.40;;;14.30;91.80;;;;;;4591076;19;20012;-21
2023/04/26 11:33:15;;;;;;;5.40;2.30;;;14.40;91.50;;;;;;4591020;19;20015;-20
2023/04/26 11:34:49;;;;;;;6.07;1.87;;;14.40;91.80;;;;;;4592271;19;20531;-20
2023/04/26 11:36:23;;;;;;;5.20;2.30;;;14.40;92.20;;;;;;4592475;19;20460;-20
2023/04/26 11:38:01;;;;;;;8.57;3.47;;;14.40;91.80;;;;;;4593281;19;20475;-20
2023/04/26 11:39:33;;;;;;;6.50;2.10;;;14.40;92.00;;;;;;4592547;19;20010;-21
2023/04/26 11:41:04;;;;;;;6.25;2.05;;;14.40;91.80;;;;;;4592506;19;20010;-20
2023/04/26 11:42:35;;;;;;;17.55;5.50;;;14.40;91.70;;;;;;4592638;19;20076;-21
2023/04/26 11:44:07;;;;;;;15.38;6.03;;;14.40;92.30;;;;;;4593644;19;20002;-21
2023/04/26 11:45:38;;;;;;;19.17;5.57;;;14.40;91.70;;;;;;4595075;19;20027;-20
2023/04/26 11:47:09;;;;;;;24.17;7.07;;;14.40;91.20;;;;;;4593720;19;20360;-21
2023/04/26 11:48:40;;;;;;;12.82;4.22;;;14.40;90.90;;;;;;4595683;19;20010;-20
2023/04/26 11:50:11;;;;;;;16.10;4.75;;;14.50;91.10;;;;;;4592241;19;20082;-20
2023/04/26 11:51:43;;;;;;;11.05;5.00;;;14.40;90.50;;;;;;4591569;19;20037;-21
2023/04/26 11:53:14;;;;;;;12.27;3.27;;;14.30;90.00;;;;;;4591652;19;20030;-21
2023/04/26 11:54:46;;;;;;;5.70;2.67;;;14.30;90.20;;;;;;4593474;19;20472;-21
2023/04/26 11:56:18;;;;;;;4.30;1.70;;;14.40;89.60;;;;;;4594091;19;20349;-20
2023/04/26 11:57:50;;;;;;;6.70;2.43;;;14.30;89.30;;;;;;4593767;19;20085;-20
2023/04/26 11:59:25;;;;;;;6.30;2.13;;;14.30;89.00;;;;;;4593049;19;20003;-21
2023/04/26 12:00:56;;;;;;;6.47;3.93;;;14.20;88.50;;;;;;4593083;19;20464;-21
2023/04/26 12:02:29;;;;;;;6.60;2.47;;;14.20;87.30;;;;;;4592528;19;20070;-20
2023/04/26 12:04:01;;;;;;;9.63;4.73;;;14.00;86.80;;;;;;4593024;19;20493;-21
2023/04/26 12:05:32;;;;;;;10.88;5.93;;;13.80;86.70;;;;;;4592979;19;20464;-21
2023/04/26 12:07:06;;;;;;;28.80;17.97;;;13.90;87.80;;;;;;4594873;19;20015;-21
2023/04/26 12:08:37;;;;;;;10.70;5.20;;;13.90;86.90;;;;;;4594097;19;20033;-20
2023/04/26 12:10:16;;;;;;;15.57;9.20;;;14.00;87.30;;;;;;4593418;19;21115;-20
2023/04/26 12:11:58;;;;;;;25.07;11.73;;;14.10;88.00;;;;;;4593649;19;20015;-21
2023/04/26 12:13:29;;;;;;;6.77;2.80;;;14.10;88.40;;;;;;4594849;19;20007;-21